Palo Alto, CA

9:20 PM PDT on September 01, 2014 (GMT -0700)
Palo Alto Of Santa Clara County | Change Station
CLOSE
Current Station
Airport
Location: Palo Alto,
Elevation: 7 ft
Nearby Weather Stations

Elev 7 ft 37.46 °N, 122.12 °W | Updated 27 minutes ago

Clear
Clear
68 °F
Feels Like 68 °F
N
8
Wind Variable Wind from NW

Today
High -- | Low -- °F
--% Chance of Precip.
Yesterday
High -- | Low -- °F
Precip. -- in
6:38 AM 7:37 PM
Waxing Crescent, 47% visible
Pressure 29.78 in
Visibility 10.0 miles
Clouds Clear
Dew Point 63 °F
Humidity 83%
Rainfall 0.00 in
Snow Depth Not available.
UV 0 out of 12
Pollen 8.40 out of 12
PM2.5 Moderate
Flu Activity Not available.
METAR KPAO 020353Z 32007KT 10SM SKC 20/17 A2978

More Conditions Fewer Conditions

Pressure 29.78 in
Visibility 10.0 miles
Clouds Clear
Dew Point 63 °F
Humidity 83%
Rainfall 0.00 in
Snow Depth Not available.
UV 0 out of 12
Pollen 8.40 out of 12
PM2.5 Moderate
Flu Activity Not available.
METAR KPAO 020353Z 32007KT 10SM SKC 20/17 A2978

More Conditions Fewer Conditions

10-Day Weather Forecast

Almanac

Astronomy

Sep. 01, 2014 Rise Set
Actual Time 6:38 AM PDT 7:37 PM PDT
Civil Twilight 6:12 AM PDT 8:03 PM PDT
Nautical Twilight 5:40 AM PDT 8:35 PM PDT
Astronomical Twilight 5:07 AM PDT 9:08 PM PDT
Moon 1:21 PM PDT (9/1) 11:51 PM PDT (9/1)
Length of Visible Light 13h 51m
Length of Day
12h 58m
Tomorrow will be 2m 18s shorter.
Waxing Crescent, 47% of the Moon is Illuminated
Sep 2
Waxing Crescent
Sep 2
First Quarter
Sep 8
Full
Sep 15
Last Quarter
Sep 24
New

Today's Extremes

State Highs State Lows

Community

WunderPhotos

Upload Photos

1,749,560 photos uploaded!

WunderBlogs® & News

Nearby

Air Quality

  Air Quality AQ Index Pollutant
Yesterday Good
PM2.5
Yesterday Good
OZONE
Current Moderate
PM2.5
Monday Good
OZONE
Tuesday Good
OZONE
Wednesday Good
OZONE
Thursday Good
OZONE
Friday Good
OZONE

Snow Depth

Station Depth Elevation
Echo Peak 0 in 7800 ft
CSS Lab 1 in 6900 ft
Adin Mountain 1 in 6200 ft
Cedar Pass 0 in 7100 ft

Earthquake Activity

City Distance Mag. Time & Date
Yountville, California 63 miles 2.6 1:15 PM PDT
2014-09-01
Gilroy, California 48 miles 3.5 9:10 AM PDT
2014-09-01
Green Valley, California 54 miles 2.5 6:37 AM PDT
2014-08-31
Napa, California 54 miles 3.2 1:56 AM PDT
2014-08-31
Minimum magnitude displayed is 2.5.

Coastal Water Temperatures

Place Temperature
No Stations Reporting

Nearby Weather Stations